Home   Weather   USA   Tullahoma   Past weeks
Flag for USA

Past Weather in Tullahoma, Tennessee, USA — Yesterday and Last 2 Weeks

Currently: 66 °F. Sunny. (Weather station: Deason, USA). See more current weather

Past Weather in Tullahoma — Graph

°F

Tullahoma Temperature Yesterday

Maximum temperature yesterday: 72 °F (at 4:55 pm)
Minimum temperature yesterday: 46 °F (at 11:55 pm)
Average temperature yesterday: 57 °F

High & Low Weather Summary for the Past Weeks

 TemperatureHumidityPressure
High95 °F (Sep 21, 4:15 pm)100% (Sep 20, 1:35 am)30.32 "Hg (Sep 20, 1:35 am)
Low39 °F (Oct 4, 5:35 am)25% (Sep 27, 1:55 pm)29.84 "Hg (Sep 25, 4:35 pm)
Average64 °F71%30.06 "Hg
* Reported Sep 19 4:15 pm — Oct 4 4:55 pm, Tullahoma. Weather by CustomWeather, © 2022

Note: Actual official high and low records may vary slightly from our data, if they occured in-between our weather recording intervals... More about our weather records

Tullahoma Weather History for the Previous 24 Hours

Scroll right to see more
 ConditionsComfort  
Time TempWeatherWind HumidityBarometerVisibility
4:55 pm
Tue, Oct 4
73 °FSunny.9 mph33%30.08 "Hg9 mi
4:35 pm73 °FSunny.10 mph33%30.08 "Hg10 mi
3:55 pm73 °FSunny.7 mph33%30.09 "Hg10 mi
3:35 pm73 °FSunny.5 mph33%30.09 "Hg10 mi
3:15 pm73 °FSunny.5 mph33%30.09 "Hg9 mi
2:35 pm73 °FSunny.6 mph38%30.10 "Hg10 mi
2:15 pm73 °FSunny.8 mph38%30.11 "Hg10 mi
1:35 pm72 °FSunny.10 mph44%30.13 "Hg10 mi
1:15 pm72 °FSunny.12 mph47%30.14 "Hg10 mi
12:55 pm70 °FSunny.12 mph50%30.14 "Hg10 mi
12:35 pm70 °FSunny.5 mph53%30.15 "Hg10 mi
11:55 am68 °FSunny.7 mph53%30.16 "Hg10 mi
11:35 am66 °FSunny.No wind56%30.17 "Hg10 mi
11:15 am64 °FSunny.3 mph68%30.17 "Hg10 mi
10:35 am63 °FSunny.5 mph73%30.18 "Hg10 mi
10:15 am61 °FSunny.No wind72%30.18 "Hg10 mi
9:35 am55 °FSunny.No wind94%30.18 "Hg10 mi
8:35 am48 °FPassing clouds.No wind100%30.18 "Hg10 mi
7:55 am45 °FFog.No wind100%30.17 "Hg0 mi
7:35 am41 °FFog.No wind100%30.17 "Hg0 mi
7:15 am39 °FFog.No wind100%30.16 "Hg0 mi
6:55 am39 °FFog.No wind100%30.15 "Hg0 mi
6:35 am39 °FFog.No wind100%30.15 "Hg0 mi
6:15 am39 °FPassing clouds.No wind100%30.16 "Hg10 mi
5:35 am39 °FFog.No wind100%30.14 "Hg1 mi
5:15 am41 °FFog.No wind100%30.14 "Hg1 mi
4:55 am41 °FClear.No wind100%30.14 "Hg9 mi
4:35 am41 °FFog.No wind100%30.14 "Hg6 mi
4:15 am41 °FFog.No wind100%30.14 "Hg3 mi
3:35 am41 °FFog.No wind100%30.14 "Hg1 mi
2:55 am43 °FFog.No wind100%30.14 "Hg3 mi
2:35 am43 °FFog.No wind100%30.14 "Hg5 mi
1:55 am43 °FFog.No wind100%30.14 "Hg3 mi
1:35 am46 °FClear.No wind100%30.14 "Hg10 mi
12:55 am46 °FClear.No wind93%30.15 "Hg10 mi
12:35 am48 °FClear.No wind94%30.16 "Hg10 mi
12:15 am46 °FClear.No wind100%30.16 "Hg10 mi
11:55 pm
Mon, Oct 3
46 °FClear.No wind100%30.16 "Hg10 mi
11:35 pm48 °FClear.No wind100%30.16 "Hg10 mi
11:15 pm48 °FClear.5 mph100%30.16 "Hg10 mi
10:55 pm48 °FClear.No wind94%30.16 "Hg10 mi
10:35 pm48 °FClear.No wind100%30.16 "Hg10 mi
10:15 pm48 °FClear.No wind100%30.16 "Hg10 mi
9:35 pm50 °FClear.No wind94%30.16 "Hg10 mi
9:15 pm50 °FClear.No wind94%30.16 "Hg10 mi
8:55 pm52 °FClear.No wind88%30.15 "Hg10 mi
8:35 pm54 °FClear.No wind88%30.15 "Hg10 mi
7:55 pm54 °FClear.No wind88%30.14 "Hg10 mi
6:35 pm64 °FClear.3 mph60%30.13 "Hg10 mi
6:15 pm66 °FSunny.3 mph56%30.13 "Hg10 mi
Weather by CustomWeather, © 2022

See weather overview